createdAt,value
2022-08-07T00:00:26.035Z,14.73
2022-08-07T00:02:53.480Z,14.73
2022-08-07T00:05:23.709Z,14.87
2022-08-07T00:07:59.866Z,14.83
2022-08-07T00:10:29.622Z,14.60
2022-08-07T00:13:03.323Z,14.89
2022-08-07T00:15:46.796Z,14.91
2022-08-07T00:18:24.267Z,15.00
2022-08-07T00:21:01.626Z,14.88
2022-08-07T00:23:30.794Z,14.88
2022-08-07T00:26:02.809Z,14.91
2022-08-07T00:28:45.578Z,15.01
2022-08-07T00:31:17.767Z,15.01
2022-08-07T00:33:47.775Z,14.60
2022-08-07T00:36:15.013Z,14.70
2022-08-07T00:38:43.830Z,14.58
2022-08-07T00:41:14.891Z,14.73
2022-08-07T00:44:02.096Z,14.68
2022-08-07T00:46:32.943Z,14.72
2022-08-07T00:49:02.978Z,14.53
2022-08-07T00:51:57.467Z,14.62
2022-08-07T00:54:19.675Z,14.41
2022-08-07T00:56:49.709Z,14.19
2022-08-07T00:59:18.141Z,14.25
2022-08-07T01:01:48.672Z,14.31
2022-08-07T01:04:24.660Z,14.37
2022-08-07T01:06:52.297Z,14.47
2022-08-07T01:09:35.664Z,14.38
2022-08-07T01:12:27.805Z,14.28
2022-08-07T01:15:01.722Z,14.29
2022-08-07T01:17:32.082Z,14.38
2022-08-07T01:20:16.717Z,14.45
2022-08-07T01:22:54.364Z,14.43
2022-08-07T01:25:40.515Z,14.38
2022-08-07T01:28:20.435Z,14.45
2022-08-07T01:30:51.357Z,14.49
2022-08-07T01:33:18.949Z,14.50
2022-08-07T01:35:53.249Z,14.48
2022-08-07T01:38:24.913Z,14.50
2022-08-07T01:41:00.036Z,14.48
2022-08-07T01:43:34.774Z,14.44
2022-08-07T01:46:05.756Z,14.34
2022-08-07T01:48:35.787Z,14.30
2022-08-07T01:52:01.103Z,14.38
2022-08-07T01:54:09.260Z,14.31
2022-08-07T01:56:53.358Z,14.48
2022-08-07T01:59:32.986Z,14.46
2022-08-07T02:02:32.775Z,14.27
2022-08-07T02:05:16.150Z,14.27
2022-08-07T02:07:58.958Z,14.22
2022-08-07T02:10:28.131Z,14.19
2022-08-07T02:13:00.686Z,14.20
2022-08-07T02:15:28.283Z,14.16
2022-08-07T02:17:57.710Z,14.23
2022-08-07T02:20:28.563Z,14.06
2022-08-07T02:23:01.932Z,14.01
2022-08-07T02:26:30.995Z,14.06
2022-08-07T02:28:27.182Z,14.27
2022-08-07T02:30:56.352Z,14.26
2022-08-07T02:33:42.064Z,14.31
2022-08-07T02:36:28.415Z,14.27
2022-08-07T02:39:01.887Z,14.07
2022-08-07T02:41:37.393Z,13.91
2022-08-07T02:44:05.373Z,13.99
2022-08-07T02:46:34.469Z,14.00
2022-08-07T02:49:05.727Z,13.99
2022-08-07T02:51:42.302Z,13.98
2022-08-07T02:54:13.240Z,13.91
2022-08-07T02:56:42.157Z,13.86
2022-08-07T02:59:12.112Z,13.73
2022-08-07T03:01:40.700Z,13.58
2022-08-07T03:04:12.768Z,13.62
2022-08-07T03:06:45.979Z,13.53
2022-08-07T03:09:43.928Z,13.48
2022-08-07T03:12:05.410Z,13.47
2022-08-07T03:14:36.398Z,13.50
2022-08-07T03:17:06.599Z,13.53
2022-08-07T03:19:37.053Z,13.58
2022-08-07T03:22:06.411Z,13.61
2022-08-07T03:24:34.633Z,13.60
2022-08-07T03:27:09.012Z,13.47
2022-08-07T03:29:49.402Z,13.46
2022-08-07T03:32:23.473Z,13.49
2022-08-07T03:35:16.997Z,13.48
2022-08-07T03:37:46.383Z,13.46
2022-08-07T03:40:22.968Z,13.60
2022-08-07T03:42:52.335Z,13.47
2022-08-07T03:45:30.579Z,13.62
2022-08-07T03:47:59.427Z,13.60
2022-08-07T03:50:28.668Z,13.53
2022-08-07T03:53:01.321Z,13.42
2022-08-07T03:55:53.053Z,13.48
2022-08-07T03:59:04.557Z,13.36
2022-08-07T04:01:11.167Z,13.29
2022-08-07T04:03:49.735Z,13.14
2022-08-07T04:06:37.158Z,13.22
2022-08-07T04:09:15.001Z,13.23
2022-08-07T04:12:23.336Z,13.26
2022-08-07T04:14:39.026Z,13.24
2022-08-07T04:17:19.951Z,13.40
2022-08-07T04:19:52.703Z,13.39
2022-08-07T04:22:29.318Z,13.45
2022-08-07T04:24:58.573Z,13.54
2022-08-07T04:27:26.576Z,13.57
2022-08-07T04:30:02.125Z,13.50
2022-08-07T04:32:34.652Z,13.47
2022-08-07T04:35:07.182Z,13.33
2022-08-07T04:38:01.147Z,13.35
2022-08-07T04:40:26.724Z,13.50
2022-08-07T04:43:02.018Z,13.44
2022-08-07T04:46:02.244Z,13.45
2022-08-07T04:48:38.183Z,13.60
2022-08-07T04:51:35.435Z,13.61
2022-08-07T04:54:18.370Z,13.59
2022-08-07T04:58:29.365Z,13.57
2022-08-07T05:00:30.253Z,13.57
2022-08-07T05:03:17.134Z,13.65
2022-08-07T05:06:19.254Z,13.49
2022-08-07T05:09:10.333Z,13.51
2022-08-07T05:11:56.993Z,13.53
2022-08-07T05:14:55.525Z,13.63
2022-08-07T05:17:52.899Z,13.64
2022-08-07T05:20:18.913Z,13.67
2022-08-07T05:22:47.959Z,13.82
2022-08-07T05:25:25.546Z,13.83
2022-08-07T05:28:20.204Z,13.92
2022-08-07T05:30:52.313Z,13.97
2022-08-07T05:33:20.920Z,13.99
2022-08-07T05:35:50.846Z,14.02
2022-08-07T05:38:58.365Z,13.89
2022-08-07T05:41:14.210Z,13.86
2022-08-07T05:44:08.562Z,14.00
2022-08-07T05:46:37.802Z,14.21
2022-08-07T05:49:12.431Z,14.34
2022-08-07T05:51:46.354Z,14.52
2022-08-07T05:54:30.540Z,14.63
2022-08-07T05:56:59.527Z,14.72
2022-08-07T05:59:27.971Z,14.87
2022-08-07T06:01:57.486Z,15.01
2022-08-07T06:04:30.288Z,15.03
2022-08-07T06:07:03.763Z,15.24
2022-08-07T06:10:03.148Z,15.39
2022-08-07T06:12:21.038Z,15.46
2022-08-07T06:14:55.384Z,15.66
2022-08-07T06:17:38.051Z,15.78
2022-08-07T06:20:06.015Z,15.90
2022-08-07T06:22:50.656Z,16.06
2022-08-07T06:25:34.928Z,16.15
2022-08-07T06:28:14.185Z,16.35
2022-08-07T06:30:45.828Z,16.43
2022-08-07T06:33:16.026Z,16.69
2022-08-07T06:35:48.031Z,16.75
2022-08-07T06:38:30.992Z,16.75
2022-08-07T06:41:01.032Z,16.87
2022-08-07T06:43:40.039Z,17.16
2022-08-07T06:46:14.354Z,17.25
2022-08-07T06:48:44.483Z,17.30
2022-08-07T06:51:31.016Z,17.32
2022-08-07T06:55:28.648Z,17.44
2022-08-07T06:56:52.066Z,17.51
2022-08-07T07:00:14.843Z,17.61
2022-08-07T07:02:48.445Z,17.81
2022-08-07T07:05:12.710Z,17.84
2022-08-07T07:07:59.981Z,17.99
2022-08-07T07:10:31.079Z,17.84
2022-08-07T07:13:06.961Z,18.10
2022-08-07T07:15:45.337Z,18.01
2022-08-07T07:18:47.889Z,18.31
2022-08-07T07:21:31.922Z,18.20
2022-08-07T07:24:12.551Z,18.55
2022-08-07T07:26:51.927Z,18.65
2022-08-07T07:29:57.123Z,18.87
2022-08-07T07:32:14.891Z,18.99
2022-08-07T07:34:48.698Z,19.20
2022-08-07T07:37:22.182Z,19.35
2022-08-07T07:40:10.242Z,19.56
2022-08-07T07:42:47.102Z,19.52
2022-08-07T07:46:35.444Z,19.68
2022-08-07T07:48:13.317Z,19.76
2022-08-07T07:51:02.050Z,19.74
2022-08-07T07:53:30.651Z,19.58
2022-08-07T07:56:02.747Z,19.71
2022-08-07T07:58:40.588Z,19.72
2022-08-07T08:02:03.603Z,19.65
2022-08-07T08:04:10.611Z,19.31
2022-08-07T08:06:52.303Z,19.51
2022-08-07T08:09:24.915Z,19.45
2022-08-07T08:12:03.923Z,19.53
2022-08-07T08:14:37.104Z,19.66
2022-08-07T08:17:56.118Z,19.84
2022-08-07T08:20:18.464Z,19.86
2022-08-07T08:23:09.486Z,19.86
2022-08-07T08:26:04.628Z,19.84
2022-08-07T08:28:43.323Z,19.83
2022-08-07T08:31:29.962Z,19.92
2022-08-07T08:34:10.399Z,20.02
2022-08-07T08:36:41.039Z,20.00
2022-08-07T08:39:13.501Z,19.98
2022-08-07T08:41:57.781Z,20.13
2022-08-07T08:44:55.067Z,19.96
2022-08-07T08:47:52.141Z,19.93
2022-08-07T08:50:39.498Z,19.93
2022-08-07T08:53:13.676Z,20.22
2022-08-07T08:55:58.331Z,20.44
2022-08-07T08:59:12.690Z,20.82
2022-08-07T09:02:08.753Z,20.72
2022-08-07T09:05:09.358Z,20.63
2022-08-07T09:07:58.005Z,20.91
2022-08-07T09:10:48.966Z,20.99
2022-08-07T09:13:37.115Z,20.84
2022-08-07T09:16:29.871Z,20.55
2022-08-07T09:19:44.838Z,20.78
2022-08-07T09:24:33.849Z,20.79
2022-08-07T09:26:22.006Z,20.76
2022-08-07T09:30:04.953Z,20.51
2022-08-07T09:32:17.240Z,20.61
2022-08-07T09:36:04.889Z,20.57
2022-08-07T09:38:12.127Z,20.82
2022-08-07T09:41:23.852Z,21.09
2022-08-07T09:44:19.218Z,21.29
2022-08-07T09:47:51.180Z,21.56
2022-08-07T09:50:18.877Z,21.43
2022-08-07T09:53:05.567Z,21.45
2022-08-07T09:56:04.543Z,21.63
2022-08-07T10:00:00.335Z,21.81
2022-08-07T10:04:03.920Z,21.71
2022-08-07T10:06:17.338Z,21.54
2022-08-07T10:09:15.333Z,21.50
2022-08-07T10:12:26.333Z,21.83
2022-08-07T10:15:44.460Z,21.94
2022-08-07T10:19:11.340Z,22.22
2022-08-07T10:22:14.454Z,22.48
2022-08-07T10:25:05.138Z,22.26
2022-08-07T10:27:53.473Z,22.47
2022-08-07T10:31:39.573Z,22.44
2022-08-07T10:34:40.950Z,22.58
2022-08-07T10:37:59.960Z,22.89
2022-08-07T10:40:30.588Z,22.56
2022-08-07T10:43:05.829Z,22.79
2022-08-07T10:45:57.838Z,22.59
2022-08-07T10:48:48.794Z,22.93
2022-08-07T10:51:57.374Z,23.20
2022-08-07T10:54:33.204Z,23.26
2022-08-07T10:57:34.771Z,23.06
2022-08-07T11:00:39.189Z,22.89
2022-08-07T11:03:20.214Z,23.35
2022-08-07T11:06:05.594Z,23.75
2022-08-07T11:09:01.202Z,23.82
2022-08-07T11:11:37.659Z,23.96
2022-08-07T11:14:44.700Z,23.89
2022-08-07T11:17:45.225Z,23.91
2022-08-07T11:20:24.919Z,24.08
2022-08-07T11:22:59.829Z,24.09
2022-08-07T11:25:42.221Z,24.12
2022-08-07T11:28:25.758Z,24.45
2022-08-07T11:31:03.221Z,24.49
2022-08-07T11:34:06.926Z,24.87
2022-08-07T11:37:04.907Z,24.86
2022-08-07T11:40:11.338Z,25.09
2022-08-07T11:43:04.697Z,25.30
2022-08-07T11:46:08.465Z,25.05
2022-08-07T11:49:27.791Z,25.04
2022-08-07T11:52:03.210Z,25.03
2022-08-07T11:55:18.820Z,25.35
2022-08-07T11:58:49.869Z,25.72
2022-08-07T12:01:25.476Z,25.74
2022-08-07T12:04:43.121Z,25.38
2022-08-07T12:07:27.178Z,25.43
2022-08-07T12:10:05.796Z,25.31
2022-08-07T12:12:43.022Z,25.53
2022-08-07T12:15:35.638Z,25.60
2022-08-07T12:18:29.927Z,25.97
2022-08-07T12:21:55.869Z,25.93
2022-08-07T12:24:38.197Z,25.86
2022-08-07T12:27:16.149Z,25.95
2022-08-07T12:30:00.670Z,26.13
2022-08-07T12:32:45.754Z,26.12
2022-08-07T12:35:17.694Z,26.22
2022-08-07T12:38:10.056Z,26.11
2022-08-07T12:40:48.509Z,26.23
2022-08-07T12:44:01.994Z,26.45
2022-08-07T12:46:32.749Z,26.43
2022-08-07T12:49:51.455Z,26.86
2022-08-07T12:53:18.653Z,26.97
2022-08-07T12:56:27.944Z,27.25
2022-08-07T12:58:57.129Z,27.18
2022-08-07T13:02:09.866Z,27.02
2022-08-07T13:06:04.494Z,26.49
2022-08-07T13:08:51.747Z,26.71
2022-08-07T13:11:26.774Z,27.02
2022-08-07T13:14:17.153Z,27.15
2022-08-07T13:17:18.172Z,27.32
2022-08-07T13:20:12.825Z,27.07
2022-08-07T13:22:53.428Z,27.07
2022-08-07T13:25:34.524Z,27.02
2022-08-07T13:28:13.702Z,27.16
2022-08-07T13:31:02.165Z,27.36
2022-08-07T13:34:30.139Z,27.46
2022-08-07T13:37:10.930Z,27.55
2022-08-07T13:40:36.793Z,28.35
2022-08-07T13:43:01.704Z,28.56
2022-08-07T13:46:11.894Z,28.60
2022-08-07T13:48:33.838Z,28.49
2022-08-07T13:51:20.511Z,28.16
2022-08-07T13:54:06.302Z,28.17
2022-08-07T13:56:41.334Z,28.09
2022-08-07T13:59:27.104Z,28.11
2022-08-07T14:02:08.710Z,28.26
2022-08-07T14:04:50.115Z,28.50
2022-08-07T14:07:27.564Z,28.79
2022-08-07T14:10:20.404Z,29.10
2022-08-07T14:13:00.578Z,29.15
2022-08-07T14:15:42.223Z,29.87
2022-08-07T14:18:33.259Z,29.63
2022-08-07T14:22:02.345Z,29.98
2022-08-07T14:24:36.561Z,30.72
2022-08-07T14:27:16.117Z,30.61
2022-08-07T14:30:11.257Z,30.62
2022-08-07T14:32:55.860Z,30.84
2022-08-07T14:35:44.898Z,30.53
2022-08-07T14:38:26.451Z,30.99
2022-08-07T14:41:05.581Z,31.81
2022-08-07T14:43:56.002Z,31.50
2022-08-07T14:49:56.836Z,31.51
2022-08-07T14:54:58.493Z,32.98
2022-08-07T14:57:28.924Z,33.31
2022-08-07T15:00:29.659Z,33.20
2022-08-07T15:03:00.161Z,32.46
2022-08-07T15:08:34.288Z,34.29
2022-08-07T15:11:07.817Z,34.35
2022-08-07T15:13:38.356Z,32.93
2022-08-07T15:19:00.583Z,31.05
2022-08-07T15:27:17.397Z,31.42
2022-08-07T15:30:08.531Z,30.83
2022-08-07T15:33:01.349Z,30.67
2022-08-07T15:36:00.747Z,30.68
2022-08-07T15:42:45.116Z,30.63
2022-08-07T15:44:15.327Z,29.76
2022-08-07T15:46:47.420Z,29.58
2022-08-07T15:52:17.195Z,29.33
2022-08-07T15:54:50.925Z,29.17
2022-08-07T15:57:39.481Z,29.03
2022-08-07T16:00:31.619Z,28.78
2022-08-07T16:03:22.006Z,28.52
2022-08-07T16:05:59.246Z,27.80
2022-08-07T16:08:37.477Z,27.75
2022-08-07T16:11:27.187Z,27.76
2022-08-07T16:14:11.951Z,27.63
2022-08-07T16:17:15.378Z,27.56
2022-08-07T16:20:06.493Z,27.43
2022-08-07T16:22:36.381Z,27.16
2022-08-07T16:25:53.946Z,27.06
2022-08-07T16:30:08.295Z,27.06
2022-08-07T16:32:02.542Z,26.56
2022-08-07T16:34:48.331Z,26.73
2022-08-07T16:38:06.500Z,26.79
2022-08-07T16:41:13.584Z,26.86
2022-08-07T16:44:04.190Z,26.76
2022-08-07T16:47:04.809Z,26.49
2022-08-07T16:50:28.788Z,26.44
2022-08-07T16:53:57.240Z,26.46
2022-08-07T16:56:44.452Z,26.24
2022-08-07T16:59:46.134Z,26.22
2022-08-07T17:02:53.372Z,26.32
2022-08-07T17:06:26.601Z,26.44
2022-08-07T17:10:06.913Z,26.21
2022-08-07T17:12:44.765Z,26.12
2022-08-07T17:15:15.703Z,25.90
2022-08-07T17:17:48.447Z,25.81
2022-08-07T17:20:37.507Z,25.68
2022-08-07T17:23:22.490Z,25.42
2022-08-07T17:26:30.753Z,25.27
2022-08-07T17:30:12.577Z,25.36
2022-08-07T17:32:30.771Z,25.50
2022-08-07T17:35:51.058Z,25.46
2022-08-07T17:38:46.995Z,25.41
2022-08-07T17:42:20.696Z,25.55
2022-08-07T17:44:54.536Z,25.20
2022-08-07T17:47:38.541Z,25.37
2022-08-07T17:51:01.660Z,25.18
2022-08-07T17:54:01.120Z,25.20
2022-08-07T17:56:35.165Z,25.20
2022-08-07T17:59:19.783Z,25.28
2022-08-07T18:01:58.278Z,25.14
2022-08-07T18:04:45.556Z,24.95
2022-08-07T18:07:34.243Z,24.85
2022-08-07T18:10:28.656Z,24.69
2022-08-07T18:13:43.505Z,24.75
2022-08-07T18:16:33.127Z,24.82
2022-08-07T18:21:10.553Z,24.59
2022-08-07T18:22:32.803Z,24.60
2022-08-07T18:25:19.338Z,24.61
2022-08-07T18:27:54.907Z,24.68
2022-08-07T18:30:50.598Z,24.57
2022-08-07T18:33:58.366Z,24.40
2022-08-07T18:36:33.294Z,24.23
2022-08-07T18:40:06.629Z,24.04
2022-08-07T18:42:28.918Z,23.93
2022-08-07T18:45:44.124Z,23.76
2022-08-07T18:49:23.803Z,23.50
2022-08-07T18:52:33.815Z,23.37
2022-08-07T18:55:00.881Z,23.22
2022-08-07T18:58:15.373Z,23.07
2022-08-07T19:01:01.986Z,22.92
2022-08-07T19:03:49.705Z,22.73
2022-08-07T19:06:51.439Z,22.64
2022-08-07T19:10:01.565Z,22.46
2022-08-07T19:12:53.765Z,22.38
2022-08-07T19:16:05.063Z,22.17
2022-08-07T19:18:48.582Z,22.06
2022-08-07T19:21:54.884Z,21.95
2022-08-07T19:24:43.487Z,21.80
2022-08-07T19:28:29.064Z,21.71
2022-08-07T19:30:56.401Z,21.51
2022-08-07T19:33:10.058Z,21.42
2022-08-07T19:35:44.237Z,21.37
2022-08-07T19:38:17.205Z,21.26
2022-08-07T19:40:50.603Z,21.07
2022-08-07T19:43:45.081Z,20.97
2022-08-07T19:46:18.896Z,20.90
2022-08-07T19:48:57.502Z,20.74
2022-08-07T19:51:52.423Z,20.63
2022-08-07T19:54:32.981Z,20.51
2022-08-07T19:58:02.039Z,20.44
2022-08-07T20:00:09.974Z,20.28
2022-08-07T20:02:52.029Z,19.98
2022-08-07T20:05:28.102Z,19.87
2022-08-07T20:08:02.704Z,19.70
2022-08-07T20:10:52.017Z,19.77
2022-08-07T20:13:53.595Z,19.58
2022-08-07T20:16:35.969Z,19.56
2022-08-07T20:19:10.577Z,19.59
2022-08-07T20:21:47.799Z,19.51
2022-08-07T20:24:21.379Z,19.40
2022-08-07T20:26:52.104Z,19.31
2022-08-07T20:29:49.550Z,19.36
2022-08-07T20:32:40.145Z,19.31
2022-08-07T20:35:26.238Z,19.03
2022-08-07T20:37:59.221Z,18.96
2022-08-07T20:40:32.036Z,18.77
2022-08-07T20:43:03.465Z,18.62
2022-08-07T20:46:27.149Z,18.61
2022-08-07T20:48:35.574Z,18.61
2022-08-07T20:51:09.418Z,18.56
2022-08-07T20:54:03.110Z,18.52
2022-08-07T20:56:32.347Z,18.41
2022-08-07T20:59:05.946Z,18.39
2022-08-07T21:01:45.435Z,18.29
2022-08-07T21:04:22.009Z,18.33
2022-08-07T21:06:55.355Z,18.19
2022-08-07T21:09:51.891Z,17.92
2022-08-07T21:12:28.411Z,17.70
2022-08-07T21:14:57.894Z,17.81
2022-08-07T21:18:02.878Z,17.79
2022-08-07T21:20:26.629Z,17.49
2022-08-07T21:23:08.083Z,17.53
2022-08-07T21:25:44.400Z,17.53
2022-08-07T21:28:58.229Z,17.35
2022-08-07T21:32:47.635Z,17.24
2022-08-07T21:35:10.768Z,16.99
2022-08-07T21:38:21.653Z,17.18
2022-08-07T21:41:09.534Z,17.23
2022-08-07T21:44:07.301Z,17.07
2022-08-07T21:46:55.964Z,16.84
2022-08-07T21:50:02.588Z,16.77
2022-08-07T21:52:58.831Z,16.68
2022-08-07T21:55:43.245Z,16.65
2022-08-07T21:59:01.267Z,16.29
2022-08-07T22:02:10.504Z,16.02
2022-08-07T22:04:39.509Z,16.01
2022-08-07T22:07:58.864Z,16.03
2022-08-07T22:10:28.301Z,16.20
2022-08-07T22:13:09.060Z,16.06
2022-08-07T22:16:39.459Z,15.97
2022-08-07T22:18:47.268Z,16.03
2022-08-07T22:22:04.507Z,15.88
2022-08-07T22:24:23.526Z,15.85
2022-08-07T22:27:18.032Z,15.74
2022-08-07T22:30:05.105Z,15.86
2022-08-07T22:33:09.694Z,15.85
2022-08-07T22:35:57.697Z,15.82
2022-08-07T22:38:47.856Z,15.89
2022-08-07T22:41:29.379Z,15.81
2022-08-07T22:44:18.500Z,15.82
2022-08-07T22:47:33.584Z,15.90
2022-08-07T22:50:34.522Z,15.84
2022-08-07T22:54:07.582Z,15.79
2022-08-07T22:56:32.436Z,15.73
2022-08-07T22:59:49.912Z,15.82
2022-08-07T23:03:02.095Z,15.54
2022-08-07T23:06:14.967Z,15.52
2022-08-07T23:10:05.006Z,15.46
2022-08-07T23:12:06.437Z,15.42
2022-08-07T23:14:57.291Z,15.49
2022-08-07T23:17:42.325Z,15.50
2022-08-07T23:20:51.332Z,15.40
2022-08-07T23:24:05.534Z,15.21
2022-08-07T23:26:54.869Z,15.32
2022-08-07T23:30:36.012Z,15.32
2022-08-07T23:34:36.924Z,15.28
2022-08-07T23:36:04.477Z,15.20
2022-08-07T23:39:08.318Z,15.16
2022-08-07T23:42:04.271Z,15.04
2022-08-07T23:45:33.513Z,14.85
2022-08-07T23:49:15.191Z,14.55
2022-08-07T23:52:59.825Z,14.58
2022-08-07T23:54:46.845Z,14.42
2022-08-07T23:57:41.438Z,14.35
